Time;durP1;ratioP1;P1;durP2;ratioP2;P2;SDS_P1;SDS_P2;PMS_P1;PMS_P2;Temp;Humidity;BMP_temperature;BMP_pressure;BME280_temperature;BME280_humidity;BME280_pressure;Samples;Min_cycle;Max_cycle;Signal;HPM_P1;HPM_P2
2022/10/11 00:00:37;;;;;;;18.50;4.03;;;7.20;99.90;;;;;;4936756;28;96135;-30
2022/10/11 00:03:03;;;;;;;12.55;4.10;;;7.20;99.90;;;;;;4936331;28;93599;-30
2022/10/11 00:05:28;;;;;;;10.88;3.35;;;7.20;99.90;;;;;;4937823;28;93308;-29
2022/10/11 00:07:54;;;;;;;10.50;5.13;;;7.20;99.90;;;;;;4936108;28;94708;-29
2022/10/11 00:10:21;;;;;;;12.07;4.00;;;7.20;99.90;;;;;;4937504;28;94553;-32
2022/10/11 00:12:47;;;;;;;10.35;3.40;;;7.20;99.90;;;;;;4937199;28;93353;-31
2022/10/11 00:15:18;;;;;;;14.85;4.78;;;7.20;99.90;;;;;;4921007;28;92617;-29
2022/10/11 00:17:44;;;;;;;14.75;4.13;;;7.10;99.90;;;;;;4939970;28;94916;-31
2022/10/11 00:20:10;;;;;;;16.50;4.30;;;7.20;99.90;;;;;;4941282;28;95110;-34
2022/10/11 00:22:37;;;;;;;9.32;3.42;;;7.20;99.90;;;;;;4940908;28;92586;-31
2022/10/11 00:25:07;;;;;;;9.57;4.28;;;7.20;99.90;;;;;;4940491;28;92187;-28
2022/10/11 00:27:34;;;;;;;8.88;3.60;;;7.20;99.90;;;;;;4939727;28;95676;-32
2022/10/11 00:30:00;;;;;;;8.13;4.03;;;7.10;99.90;;;;;;4939814;28;95402;-31
2022/10/11 00:32:26;;;;;;;13.85;4.32;;;7.10;99.90;;;;;;4940560;28;93493;-30
2022/10/11 00:34:52;;;;;;;17.15;4.55;;;7.10;99.90;;;;;;4939938;28;92796;-32
2022/10/11 00:37:18;;;;;;;12.27;3.58;;;7.20;99.90;;;;;;4940142;28;94923;-29
2022/10/11 00:39:44;;;;;;;13.60;4.20;;;7.20;99.90;;;;;;4939932;28;95849;-32
2022/10/11 00:42:14;;;;;;;21.85;4.57;;;7.10;99.90;;;;;;4939644;28;95164;-31
2022/10/11 00:44:45;;;;;;;16.55;3.80;;;7.10;99.90;;;;;;4939717;28;92231;-30
2022/10/11 00:47:16;;;;;;;13.75;3.38;;;7.10;99.90;;;;;;4940007;28;94981;-30
2022/10/11 00:49:52;;;;;;;9.32;3.75;;;7.10;99.90;;;;;;4939857;28;95144;-29
2022/10/11 00:55:09;;;;;;;9.77;4.75;;;7.10;99.90;;;;;;4940171;28;94001;-32
2022/10/11 00:57:38;;;;;;;9.80;3.30;;;7.10;99.90;;;;;;4939430;28;94780;-31
2022/10/11 01:00:11;;;;;;;8.82;3.50;;;7.20;99.90;;;;;;4939980;28;94780;-28
2022/10/11 01:02:38;;;;;;;11.73;3.25;;;7.10;99.90;;;;;;4939846;28;93123;-32
2022/10/11 01:05:05;;;;;;;11.90;4.15;;;7.10;99.90;;;;;;4939275;28;92130;-31
2022/10/11 01:07:31;;;;;;;8.70;3.17;;;7.10;99.90;;;;;;4939741;28;96370;-31
2022/10/11 01:09:57;;;;;;;9.00;3.30;;;7.10;99.90;;;;;;4939365;28;94741;-30
2022/10/11 01:12:25;;;;;;;15.38;4.95;;;7.10;99.90;;;;;;4940453;28;94602;-31
2022/10/11 01:15:02;;;;;;;10.88;3.25;;;7.00;99.90;;;;;;4939755;28;93312;-29
2022/10/11 01:17:44;;;;;;;15.05;4.53;;;7.00;99.90;;;;;;4939037;28;95817;-29
2022/10/11 01:20:33;;;;;;;12.40;3.45;;;7.00;99.90;;;;;;4939230;28;95766;-30
2022/10/11 01:23:10;;;;;;;10.07;3.67;;;6.90;99.90;;;;;;4935781;28;94395;-30
2022/10/11 01:26:06;;;;;;;13.95;3.92;;;6.90;99.90;;;;;;4940248;28;94554;-30
2022/10/11 01:29:02;;;;;;;9.52;2.95;;;6.90;99.90;;;;;;4939297;28;95164;-29
2022/10/11 01:31:36;;;;;;;14.48;3.63;;;6.80;99.90;;;;;;4939061;28;96477;-30
2022/10/11 01:34:13;;;;;;;13.13;3.50;;;6.80;99.90;;;;;;4939812;28;92175;-30
2022/10/11 01:36:41;;;;;;;8.77;3.95;;;6.70;99.90;;;;;;4940648;28;92618;-32
2022/10/11 01:39:44;;;;;;;7.72;3.05;;;6.70;99.90;;;;;;4938649;28;94834;-32
2022/10/11 01:42:12;;;;;;;16.20;4.13;;;6.70;99.90;;;;;;4938683;28;94568;-30
2022/10/11 01:44:40;;;;;;;11.55;3.72;;;6.70;99.90;;;;;;4939329;28;94027;-31
2022/10/11 01:47:06;;;;;;;16.88;3.85;;;6.60;99.90;;;;;;4939845;28;93786;-31
2022/10/11 01:49:31;;;;;;;8.15;3.50;;;6.70;99.90;;;;;;4938702;28;94816;-30
2022/10/11 01:51:59;;;;;;;13.18;3.33;;;6.60;99.90;;;;;;4938671;28;94055;-32
2022/10/11 01:54:35;;;;;;;11.00;4.00;;;6.60;99.90;;;;;;4951064;28;93666;-31
2022/10/11 01:57:19;;;;;;;10.55;3.55;;;6.60;99.90;;;;;;4957870;28;93568;-30
2022/10/11 02:00:15;;;;;;;8.63;3.72;;;6.60;99.90;;;;;;4955983;28;94736;-32
2022/10/11 02:02:59;;;;;;;9.40;3.35;;;6.60;99.90;;;;;;4958165;28;93537;-31
2022/10/11 02:05:43;;;;;;;8.68;4.18;;;6.60;99.90;;;;;;4958442;28;93039;-28
2022/10/11 02:08:24;;;;;;;10.68;4.22;;;6.60;99.90;;;;;;4958594;28;93180;-32
2022/10/11 02:11:08;;;;;;;6.45;3.40;;;6.60;99.90;;;;;;4957063;28;96824;-32
2022/10/11 02:13:46;;;;;;;8.77;3.65;;;6.60;99.90;;;;;;4958098;28;95242;-29
2022/10/11 02:16:20;;;;;;;11.23;3.28;;;6.60;99.90;;;;;;4958180;28;94795;-30
2022/10/11 02:18:50;;;;;;;12.60;2.95;;;6.70;99.90;;;;;;4945402;28;94308;-33
2022/10/11 02:21:18;;;;;;;14.73;4.07;;;6.70;99.90;;;;;;4957583;28;94697;-31
2022/10/11 02:23:55;;;;;;;10.88;3.03;;;6.70;99.90;;;;;;4957363;28;94782;-31
2022/10/11 02:26:23;;;;;;;9.07;3.42;;;6.70;99.90;;;;;;4958723;28;93094;-29
2022/10/11 02:28:51;;;;;;;7.65;3.28;;;6.70;99.90;;;;;;4958079;28;93769;-29
2022/10/11 02:31:19;;;;;;;9.15;3.33;;;6.70;99.90;;;;;;4957797;28;95029;-32
2022/10/11 02:33:55;;;;;;;10.37;3.00;;;6.70;99.90;;;;;;4956614;28;94578;-32
2022/10/11 02:36:33;;;;;;;11.93;3.05;;;6.70;99.90;;;;;;4957893;28;94399;-30
2022/10/11 02:39:05;;;;;;;9.68;3.22;;;6.60;99.90;;;;;;4957341;28;94151;-29
2022/10/11 02:41:39;;;;;;;12.15;3.00;;;6.70;99.90;;;;;;4957990;28;94986;-31
2022/10/11 02:44:25;;;;;;;12.27;3.13;;;6.60;99.90;;;;;;4957647;28;96155;-31
2022/10/11 02:46:51;;;;;;;8.75;2.95;;;6.60;99.90;;;;;;4957907;28;92210;-31
2022/10/11 02:49:18;;;;;;;7.45;3.22;;;6.60;99.90;;;;;;4957635;28;93985;-32
2022/10/11 02:51:44;;;;;;;15.18;3.35;;;6.60;99.90;;;;;;4956878;28;94806;-31
2022/10/11 02:54:09;;;;;;;8.98;3.50;;;6.50;99.90;;;;;;4957081;28;93880;-32
2022/10/11 02:56:35;;;;;;;16.42;3.75;;;6.60;99.90;;;;;;4958525;28;94475;-29
2022/10/11 02:59:00;;;;;;;10.30;3.22;;;6.60;99.90;;;;;;4956866;28;94431;-28
2022/10/11 03:01:26;;;;;;;19.70;4.57;;;6.60;99.90;;;;;;4956680;28;95214;-28
2022/10/11 03:03:51;;;;;;;7.53;3.10;;;6.60;99.90;;;;;;4956823;28;95613;-31
2022/10/11 03:06:17;;;;;;;10.98;3.20;;;6.60;99.90;;;;;;4957811;28;92347;-34
2022/10/11 03:08:43;;;;;;;8.63;3.38;;;6.50;99.90;;;;;;4956993;28;95049;-29
2022/10/11 03:11:08;;;;;;;6.75;2.90;;;6.50;99.90;;;;;;4956760;28;94711;-34
2022/10/11 03:13:34;;;;;;;11.10;3.38;;;6.50;99.90;;;;;;4939663;28;94059;-29
2022/10/11 03:15:59;;;;;;;7.82;3.58;;;6.50;99.90;;;;;;4957236;28;92634;-28
2022/10/11 03:18:25;;;;;;;8.93;2.60;;;6.50;99.90;;;;;;4958079;28;93998;-31
2022/10/11 03:20:50;;;;;;;10.02;2.88;;;6.50;99.90;;;;;;4957016;28;94549;-31
2022/10/11 03:23:16;;;;;;;12.38;3.67;;;6.50;99.90;;;;;;4957646;28;94932;-30
2022/10/11 03:25:44;;;;;;;6.90;3.22;;;6.40;99.90;;;;;;4956491;28;93095;-29
2022/10/11 03:28:09;;;;;;;10.30;3.22;;;6.40;99.90;;;;;;4956755;28;92131;-30
2022/10/11 03:30:35;;;;;;;11.38;3.58;;;6.40;99.90;;;;;;4957318;28;94694;-31
2022/10/11 03:33:00;;;;;;;10.88;3.53;;;6.40;99.90;;;;;;4956718;28;94667;-33
2022/10/11 03:35:26;;;;;;;10.30;3.80;;;6.40;99.90;;;;;;4957008;28;94003;-31
2022/10/11 03:37:52;;;;;;;9.52;2.78;;;6.40;99.90;;;;;;4956870;28;93350;-32
2022/10/11 03:40:17;;;;;;;9.00;3.35;;;6.40;99.90;;;;;;4956303;28;94824;-33
2022/10/11 03:42:43;;;;;;;9.90;3.05;;;6.40;99.90;;;;;;4957501;28;94491;-29
2022/10/11 03:45:09;;;;;;;10.40;4.03;;;6.40;99.90;;;;;;4956512;28;92743;-32
2022/10/11 03:47:36;;;;;;;15.10;2.95;;;6.40;99.90;;;;;;4957971;28;93641;-30
2022/10/11 03:50:03;;;;;;;13.93;3.28;;;6.40;99.90;;;;;;4958844;28;95938;-29
2022/10/11 03:52:28;;;;;;;9.80;3.25;;;6.40;99.90;;;;;;4963342;28;95251;-33
2022/10/11 03:54:54;;;;;;;13.98;4.13;;;6.40;99.90;;;;;;4963172;28;93116;-32
2022/10/11 03:57:19;;;;;;;10.75;3.67;;;6.40;99.90;;;;;;4963134;28;92181;-31
2022/10/11 03:59:45;;;;;;;12.48;3.28;;;6.30;99.90;;;;;;4962599;28;94572;-31
2022/10/11 04:02:10;;;;;;;11.48;2.80;;;6.40;99.90;;;;;;4963537;28;96308;-29
2022/10/11 04:04:36;;;;;;;14.48;3.35;;;6.30;99.90;;;;;;4963022;28;94991;-30
2022/10/11 04:07:02;;;;;;;6.50;3.13;;;6.40;99.90;;;;;;4963764;28;92198;-31
2022/10/11 04:09:28;;;;;;;7.22;3.20;;;6.40;99.90;;;;;;4962599;28;95451;-30
2022/10/11 04:11:53;;;;;;;6.22;3.03;;;6.40;99.90;;;;;;4962810;28;94926;-31
2022/10/11 04:14:19;;;;;;;9.80;3.97;;;6.40;99.90;;;;;;4962985;28;94277;-30
2022/10/11 04:16:44;;;;;;;11.30;3.60;;;6.40;99.90;;;;;;4962679;28;93503;-30
2022/10/11 04:19:10;;;;;;;11.00;4.10;;;6.40;99.90;;;;;;4963417;28;95067;-30
2022/10/11 04:21:36;;;;;;;11.45;3.45;;;6.40;99.90;;;;;;4944659;28;93516;-31
2022/10/11 04:24:01;;;;;;;8.73;3.25;;;6.30;99.90;;;;;;4963090;28;92163;-33
2022/10/11 04:26:27;;;;;;;9.88;3.83;;;6.30;99.90;;;;;;4944659;28;93968;-30
2022/10/11 04:28:53;;;;;;;13.30;3.60;;;6.30;99.90;;;;;;4962984;28;94343;-30
2022/10/11 04:31:18;;;;;;;22.48;3.85;;;6.30;99.90;;;;;;4963110;28;94386;-30
2022/10/11 04:33:44;;;;;;;12.65;3.92;;;6.30;99.90;;;;;;4962471;28;94293;-34
2022/10/11 04:36:10;;;;;;;10.48;3.58;;;6.40;99.90;;;;;;4962948;28;93269;-31
2022/10/11 04:38:35;;;;;;;7.25;3.20;;;6.40;99.90;;;;;;4943629;28;95521;-30
2022/10/11 04:41:14;;;;;;;19.23;9.00;;;6.40;99.90;;;;;;4962439;28;96048;-30
2022/10/11 04:43:39;;;;;;;12.68;3.63;;;6.40;99.90;;;;;;4963387;28;93245;-32
2022/10/11 04:46:06;;;;;;;6.82;3.03;;;6.40;99.90;;;;;;4962346;28;93399;-32
2022/10/11 04:48:32;;;;;;;13.40;3.38;;;6.40;99.90;;;;;;4961630;28;94093;-30
2022/10/11 04:50:57;;;;;;;13.35;4.15;;;6.40;99.90;;;;;;4962787;28;94022;-30
2022/10/11 04:53:23;;;;;;;5.80;3.40;;;6.40;99.90;;;;;;4958284;28;93078;-32
2022/10/11 04:56:04;;;;;;;11.48;3.58;;;6.40;99.90;;;;;;4963124;28;91458;-32
2022/10/11 04:58:31;;;;;;;11.30;3.78;;;6.40;99.90;;;;;;4962009;28;94715;-32
2022/10/11 05:00:57;;;;;;;14.00;3.55;;;6.40;99.90;;;;;;4961025;28;94909;-29
2022/10/11 05:03:24;;;;;;;10.60;3.38;;;6.40;99.90;;;;;;4958545;28;95109;-32
2022/10/11 05:05:50;;;;;;;7.25;3.30;;;6.40;99.90;;;;;;4959215;28;94253;-33
2022/10/11 05:08:15;;;;;;;9.30;3.40;;;6.40;99.90;;;;;;4959036;28;95185;-30
2022/10/11 05:10:41;;;;;;;9.57;3.45;;;6.40;99.90;;;;;;4958291;28;95719;-29
2022/10/11 05:13:07;;;;;;;9.73;3.30;;;6.40;99.90;;;;;;4958645;28;92156;-32
2022/10/11 05:15:33;;;;;;;10.10;3.70;;;6.30;99.90;;;;;;4951916;28;92496;-30
2022/10/11 05:17:59;;;;;;;11.15;4.00;;;6.30;99.90;;;;;;4954650;28;94726;-33
2022/10/11 05:20:25;;;;;;;6.80;2.97;;;6.30;99.90;;;;;;4958989;28;93884;-29
2022/10/11 05:22:50;;;;;;;12.38;4.20;;;6.30;99.90;;;;;;4958353;28;92151;-30
2022/10/11 05:25:16;;;;;;;13.63;4.45;;;6.30;99.90;;;;;;4958996;28;94330;-29
2022/10/11 05:27:42;;;;;;;8.93;3.15;;;6.30;99.90;;;;;;4958027;28;95836;-30
2022/10/11 05:30:08;;;;;;;12.68;3.60;;;6.30;99.90;;;;;;4958659;28;95518;-29
2022/10/11 05:32:33;;;;;;;14.30;3.60;;;6.30;99.90;;;;;;4959120;28;93326;-32
2022/10/11 05:34:59;;;;;;;6.43;2.85;;;6.30;99.90;;;;;;4958122;28;94000;-34
2022/10/11 05:37:24;;;;;;;5.93;3.90;;;6.30;99.90;;;;;;4939949;28;94499;-30
2022/10/11 05:39:50;;;;;;;12.65;3.65;;;6.30;99.90;;;;;;4957633;28;94444;-30
2022/10/11 05:42:16;;;;;;;8.75;3.30;;;6.20;99.90;;;;;;4959212;28;93958;-31
2022/10/11 05:44:41;;;;;;;5.95;3.30;;;6.20;99.90;;;;;;4958942;28;93872;-31
2022/10/11 05:47:07;;;;;;;14.18;6.15;;;6.20;99.90;;;;;;4958228;28;94759;-34
2022/10/11 05:49:32;;;;;;;7.30;3.97;;;6.20;99.90;;;;;;4939345;28;93012;-31
2022/10/11 05:51:58;;;;;;;6.03;3.47;;;6.20;99.90;;;;;;4957956;28;95605;-33
2022/10/11 05:54:24;;;;;;;7.75;4.18;;;6.10;99.90;;;;;;4958396;28;93511;-30
2022/10/11 05:56:49;;;;;;;13.07;4.68;;;6.10;99.90;;;;;;4957825;28;94844;-31
2022/10/11 05:59:15;;;;;;;14.45;3.85;;;6.10;99.90;;;;;;4958348;28;94882;-31
2022/10/11 06:01:40;;;;;;;12.63;4.10;;;6.10;99.90;;;;;;4949260;28;94444;-30
2022/10/11 06:04:07;;;;;;;10.68;4.50;;;6.10;99.90;;;;;;4958088;28;93941;-34
2022/10/11 06:06:32;;;;;;;8.98;3.85;;;6.10;99.90;;;;;;4958274;28;94715;-30
2022/10/11 06:08:58;;;;;;;7.47;4.45;;;6.10;99.90;;;;;;4957306;28;94388;-30
2022/10/11 06:11:26;;;;;;;12.57;4.63;;;6.10;99.90;;;;;;4958495;28;92082;-32
2022/10/11 06:13:56;;;;;;;10.55;4.95;;;6.10;99.90;;;;;;4957655;28;93450;-32
2022/10/11 06:16:22;;;;;;;14.32;4.53;;;6.10;99.90;;;;;;4957380;28;94129;-29
2022/10/11 06:18:51;;;;;;;9.75;4.45;;;6.10;99.90;;;;;;4957694;28;95757;-32
2022/10/11 06:21:17;;;;;;;13.43;4.75;;;6.20;99.90;;;;;;4957246;28;92479;-29
2022/10/11 06:23:43;;;;;;;9.15;4.43;;;6.20;99.90;;;;;;4957843;28;92325;-31
2022/10/11 06:26:09;;;;;;;11.30;4.80;;;6.20;99.90;;;;;;4957804;28;94935;-30
2022/10/11 06:28:35;;;;;;;7.45;4.22;;;6.20;99.90;;;;;;4957812;28;96899;-31
2022/10/11 06:31:03;;;;;;;13.85;4.82;;;6.20;99.90;;;;;;4955303;28;94268;-30
2022/10/11 06:33:29;;;;;;;10.93;5.70;;;6.30;99.90;;;;;;4956300;28;91785;-28
2022/10/11 06:35:59;;;;;;;11.85;4.75;;;6.30;99.90;;;;;;4955658;28;94915;-31
2022/10/11 06:38:25;;;;;;;9.02;4.88;;;6.30;99.90;;;;;;4955225;28;93373;-31
2022/10/11 06:40:51;;;;;;;14.95;5.10;;;6.30;99.90;;;;;;4955084;28;94355;-32
2022/10/11 06:43:16;;;;;;;19.95;6.38;;;6.30;99.90;;;;;;4952857;28;92984;-31
2022/10/11 06:45:42;;;;;;;11.45;5.32;;;6.40;99.90;;;;;;4964933;28;94849;-30
2022/10/11 06:48:08;;;;;;;6.15;4.50;;;6.30;99.90;;;;;;4960004;28;94592;-30
2022/10/11 06:50:33;;;;;;;8.23;4.45;;;6.40;99.90;;;;;;4955388;28;92543;-31
2022/10/11 06:52:59;;;;;;;5.32;3.95;;;6.50;99.90;;;;;;4955504;28;94373;-30
2022/10/11 06:55:25;;;;;;;7.70;4.75;;;6.50;99.90;;;;;;4954552;28;94365;-30
2022/10/11 06:57:50;;;;;;;7.72;4.50;;;6.50;99.90;;;;;;4955365;28;94723;-30
2022/10/11 07:00:35;;;;;;;16.65;5.70;;;6.60;99.90;;;;;;4958563;28;93804;-29
2022/10/11 07:03:01;;;;;;;11.20;4.95;;;6.60;99.90;;;;;;4955421;28;93540;-33
2022/10/11 07:05:28;;;;;;;7.30;4.60;;;6.70;99.90;;;;;;4954506;28;94075;-31
2022/10/11 07:07:54;;;;;;;10.35;5.80;;;6.80;99.90;;;;;;4954952;28;95403;-32
2022/10/11 07:10:19;;;;;;;7.40;5.22;;;6.90;99.90;;;;;;4956229;28;92872;-31
2022/10/11 07:12:45;;;;;;;12.35;6.22;;;6.90;99.90;;;;;;4954805;28;92991;-33
2022/10/11 07:15:11;;;;;;;9.00;5.90;;;7.00;99.90;;;;;;4954905;28;94516;-30
2022/10/11 07:17:37;;;;;;;11.27;7.45;;;7.10;99.90;;;;;;4955205;28;94496;-29
2022/10/11 07:20:03;;;;;;;6.80;5.47;;;7.10;99.90;;;;;;4960089;28;93278;-29
2022/10/11 07:22:28;;;;;;;18.13;9.88;;;7.20;99.90;;;;;;4957217;28;91877;-31
2022/10/11 07:24:54;;;;;;;11.82;6.60;;;7.20;99.90;;;;;;4953479;28;94251;-31
2022/10/11 07:27:22;;;;;;;9.32;6.13;;;7.30;99.90;;;;;;4955162;28;94473;-31
2022/10/11 07:29:47;;;;;;;14.25;6.05;;;7.40;99.90;;;;;;4937804;28;94085;-31
2022/10/11 07:32:15;;;;;;;9.43;5.47;;;7.40;99.90;;;;;;4954852;28;95237;-30
2022/10/11 07:34:40;;;;;;;9.85;5.22;;;7.40;99.90;;;;;;4954313;28;95001;-33
2022/10/11 07:37:06;;;;;;;12.48;5.78;;;7.50;99.90;;;;;;4955917;28;94605;-33
2022/10/11 07:39:32;;;;;;;7.35;5.22;;;7.50;99.90;;;;;;4954440;28;93499;-29
2022/10/11 07:41:58;;;;;;;5.28;4.78;;;7.50;99.90;;;;;;4955148;28;94955;-30
2022/10/11 07:44:24;;;;;;;15.02;5.43;;;7.60;99.90;;;;;;4954134;28;94215;-31
2022/10/11 07:46:49;;;;;;;8.90;5.72;;;7.60;99.90;;;;;;4954882;28;94176;-32
2022/10/11 07:49:15;;;;;;;14.35;6.00;;;7.70;99.90;;;;;;4955307;28;94307;-31
2022/10/11 07:51:41;;;;;;;10.18;5.15;;;7.70;99.90;;;;;;4936059;28;93578;-28
2022/10/11 07:54:06;;;;;;;9.45;5.15;;;7.80;99.90;;;;;;4954019;28;96419;-31
2022/10/11 07:56:32;;;;;;;13.25;5.22;;;7.80;99.90;;;;;;4953855;28;95515;-33
2022/10/11 07:59:02;;;;;;;11.93;6.13;;;7.80;99.90;;;;;;4954792;28;93950;-32
2022/10/11 08:01:28;;;;;;;15.38;5.55;;;7.90;99.90;;;;;;4954550;28;92757;-30
2022/10/11 08:03:55;;;;;;;16.77;7.20;;;7.90;99.90;;;;;;4954372;28;94694;-31
2022/10/11 08:06:25;;;;;;;13.55;6.43;;;8.00;99.90;;;;;;4954261;28;94341;-32
2022/10/11 08:08:50;;;;;;;12.55;6.25;;;8.10;99.90;;;;;;4953906;28;94211;-30
2022/10/11 08:11:20;;;;;;;13.00;6.78;;;8.20;99.90;;;;;;4955106;28;92086;-30
2022/10/11 08:13:46;;;;;;;6.35;4.63;;;8.30;99.90;;;;;;4954459;28;94429;-33
2022/10/11 08:16:12;;;;;;;12.90;5.63;;;8.50;99.90;;;;;;4954709;28;94446;-30
2022/10/11 08:18:38;;;;;;;10.38;4.60;;;8.50;99.90;;;;;;4953204;28;93600;-30
2022/10/11 08:21:12;;;;;;;12.40;5.38;;;8.60;99.90;;;;;;4954386;28;95030;-31
2022/10/11 08:23:38;;;;;;;8.20;5.75;;;8.70;99.90;;;;;;4954705;28;94461;-30
2022/10/11 08:26:04;;;;;;;13.98;5.55;;;8.80;99.90;;;;;;4954863;28;95598;-29
2022/10/11 08:28:30;;;;;;;9.45;4.88;;;8.90;99.90;;;;;;4954672;28;93680;-31
2022/10/11 08:30:56;;;;;;;15.63;5.25;;;9.10;99.90;;;;;;4953565;28;93899;-32
2022/10/11 08:33:22;;;;;;;9.65;5.32;;;9.20;99.90;;;;;;4954527;28;94827;-31
2022/10/11 08:35:49;;;;;;;16.55;5.03;;;9.40;99.90;;;;;;4955010;28;94407;-30
2022/10/11 08:38:15;;;;;;;7.78;4.68;;;9.50;99.90;;;;;;4958079;28;92592;-32
2022/10/11 08:40:48;;;;;;;8.07;5.07;;;9.60;99.90;;;;;;4957491;28;94931;-29
2022/10/11 08:43:22;;;;;;;14.40;5.43;;;9.70;99.90;;;;;;4957127;28;95625;-33
2022/10/11 08:45:52;;;;;;;10.45;5.43;;;9.80;99.90;;;;;;4957220;28;95373;-32
2022/10/11 08:48:40;;;;;;;8.65;4.18;;;9.90;99.90;;;;;;4958534;28;94435;-32
2022/10/11 08:51:23;;;;;;;8.98;4.35;;;10.10;99.90;;;;;;4956727;28;93123;-30
2022/10/11 08:54:13;;;;;;;7.07;4.28;;;10.20;99.90;;;;;;4956612;28;95238;-34
2022/10/11 08:56:40;;;;;;;9.52;3.67;;;10.30;99.90;;;;;;4956882;28;95703;-30
2022/10/11 08:59:12;;;;;;;11.65;5.32;;;10.50;99.90;;;;;;4957788;28;92938;-32
2022/10/11 09:01:51;;;;;;;16.65;4.75;;;10.60;99.90;;;;;;4957438;28;94122;-33
2022/10/11 09:04:17;;;;;;;13.98;5.18;;;10.80;99.90;;;;;;4956430;28;93967;-39
2022/10/11 09:06:57;;;;;;;5.35;3.17;;;11.00;99.90;;;;;;4957779;28;94211;-33
2022/10/11 09:10:07;;;;;;;7.65;4.15;;;11.10;99.90;;;;;;4957031;28;94301;-33
2022/10/11 09:12:44;;;;;;;13.10;3.55;;;11.10;99.90;;;;;;4856994;28;93884;-31
2022/10/11 09:15:10;;;;;;;13.00;8.18;;;11.20;99.90;;;;;;4948729;28;94609;-34
2022/10/11 09:17:56;;;;;;;5.70;3.03;;;11.30;99.90;;;;;;4956991;28;94881;-33
2022/10/11 09:20:50;;;;;;;8.02;3.53;;;11.40;99.90;;;;;;4957167;28;93080;-32
2022/10/11 09:23:36;;;;;;;9.18;3.65;;;11.60;99.90;;;;;;4957161;28;94526;-33
2022/10/11 09:26:13;;;;;;;6.97;3.33;;;11.70;99.90;;;;;;4956826;28;94695;-31
2022/10/11 09:28:59;;;;;;;6.82;3.22;;;11.80;99.90;;;;;;4956834;28;94606;-30
2022/10/11 09:31:26;;;;;;;7.93;3.65;;;11.90;99.90;;;;;;4956709;28;93553;-32
2022/10/11 09:33:52;;;;;;;9.18;3.65;;;12.10;99.90;;;;;;4956219;28;94016;-33
2022/10/11 09:36:54;;;;;;;8.48;4.32;;;12.10;99.90;;;;;;4956290;28;96262;-29
2022/10/11 09:40:05;;;;;;;5.88;3.30;;;12.20;99.90;;;;;;4955921;28;95974;-31
2022/10/11 09:42:31;;;;;;;5.30;2.05;;;12.30;99.90;;;;;;4879349;28;94414;-32
2022/10/11 09:44:58;;;;;;;10.45;3.25;;;12.40;99.90;;;;;;4947042;28;94251;-33
2022/10/11 09:47:26;;;;;;;6.72;2.78;;;12.40;99.90;;;;;;4956027;28;95174;-33
2022/10/11 09:50:03;;;;;;;11.48;3.08;;;12.40;99.90;;;;;;4956546;28;94388;-29
2022/10/11 09:52:29;;;;;;;9.18;2.90;;;12.50;99.90;;;;;;4956767;28;95191;-31
2022/10/11 09:54:59;;;;;;;5.85;3.05;;;12.50;99.90;;;;;;4956255;28;92751;-33
2022/10/11 09:57:35;;;;;;;9.77;3.78;;;12.60;99.90;;;;;;4956126;28;94552;-33
2022/10/11 10:00:18;;;;;;;9.13;3.65;;;12.70;99.90;;;;;;4956918;28;94746;-33
2022/10/11 10:02:47;;;;;;;11.30;3.10;;;12.80;99.90;;;;;;4955944;28;95706;-30
2022/10/11 10:05:19;;;;;;;10.20;3.17;;;12.90;99.90;;;;;;4955381;28;93080;-31
2022/10/11 10:08:01;;;;;;;7.72;3.83;;;12.90;99.90;;;;;;4953702;28;95885;-33
2022/10/11 10:10:34;;;;;;;7.97;3.33;;;13.00;99.90;;;;;;4955305;28;94285;-32
2022/10/11 10:13:03;;;;;;;7.70;2.40;;;13.20;99.90;;;;;;4955455;28;92212;-33
2022/10/11 10:15:36;;;;;;;8.80;4.25;;;13.20;99.90;;;;;;4955032;28;93365;-32
2022/10/11 10:18:05;;;;;;;7.18;2.83;;;13.30;99.90;;;;;;4954455;28;94388;-32
2022/10/11 10:20:33;;;;;;;10.80;3.95;;;13.30;99.90;;;;;;4955551;28;93250;-30
2022/10/11 10:23:08;;;;;;;14.63;3.67;;;13.40;99.90;;;;;;4955641;28;92664;-32
2022/10/11 10:25:37;;;;;;;6.75;2.67;;;13.40;99.90;;;;;;4935528;28;92247;-32
2022/10/11 10:28:17;;;;;;;9.43;2.65;;;13.40;99.90;;;;;;4950742;28;96055;-30
2022/10/11 10:30:55;;;;;;;7.65;3.67;;;13.50;99.90;;;;;;4955450;28;94822;-32
2022/10/11 10:33:33;;;;;;;10.38;3.10;;;13.60;99.90;;;;;;4955791;28;92936;-30
2022/10/11 10:36:17;;;;;;;6.18;2.30;;;13.70;99.90;;;;;;4955778;28;95314;-32
2022/10/11 10:38:58;;;;;;;5.90;2.17;;;13.80;99.90;;;;;;4955229;28;95084;-34
2022/10/11 10:41:23;;;;;;;10.55;2.70;;;13.90;99.90;;;;;;4954970;28;94701;-30
2022/10/11 10:43:57;;;;;;;6.20;3.08;;;14.00;99.90;;;;;;4955503;28;94799;-30
2022/10/11 10:46:40;;;;;;;5.00;2.28;;;14.10;99.90;;;;;;4955671;28;91633;-31
2022/10/11 10:49:27;;;;;;;9.45;2.65;;;14.30;99.90;;;;;;4956296;28;94901;-33
2022/10/11 10:52:17;;;;;;;9.85;3.40;;;14.30;99.90;;;;;;4954950;28;95834;-32
2022/10/11 10:54:54;;;;;;;17.58;5.43;;;14.30;99.90;;;;;;4954482;28;93935;-31
2022/10/11 10:57:26;;;;;;;9.75;2.63;;;14.40;99.90;;;;;;4954748;28;94429;-31
2022/10/11 11:00:15;;;;;;;11.50;3.20;;;14.30;99.90;;;;;;4954312;28;94978;-31
2022/10/11 11:02:45;;;;;;;13.35;4.50;;;14.30;99.90;;;;;;4954612;28;93926;-33
2022/10/11 11:05:56;;;;;;;5.75;3.28;;;14.40;99.90;;;;;;4955310;28;93342;-30
2022/10/11 11:08:47;;;;;;;9.70;2.67;;;14.50;99.90;;;;;;4954935;28;92153;-32
2022/10/11 11:11:44;;;;;;;6.03;2.47;;;14.70;99.90;;;;;;4937682;28;94741;-34
2022/10/11 11:14:21;;;;;;;6.78;2.90;;;14.80;99.90;;;;;;4955880;28;94297;-33
2022/10/11 11:17:12;;;;;;;13.85;4.00;;;14.90;99.90;;;;;;4951716;28;95024;-33
2022/10/11 11:19:46;;;;;;;7.50;2.90;;;15.00;99.90;;;;;;4954815;28;94177;-34
2022/10/11 11:22:51;;;;;;;23.63;2.65;;;15.00;99.90;;;;;;4953827;28;94898;-30
2022/10/11 11:25:23;;;;;;;8.25;2.92;;;15.00;99.90;;;;;;4912473;28;95812;-29
2022/10/11 11:28:04;;;;;;;6.25;2.17;;;15.10;99.90;;;;;;4949013;28;93694;-32
2022/10/11 11:30:41;;;;;;;6.15;3.03;;;15.10;99.90;;;;;;4932385;28;92124;-34
2022/10/11 11:33:31;;;;;;;8.77;2.83;;;15.20;99.90;;;;;;4948969;28;95692;-31
2022/10/11 11:36:02;;;;;;;10.27;3.50;;;15.20;99.90;;;;;;4944409;28;94627;-31
2022/10/11 11:38:47;;;;;;;11.63;3.28;;;15.30;99.90;;;;;;4954745;28;92662;-31
2022/10/11 11:41:38;;;;;;;14.02;3.00;;;15.40;99.90;;;;;;4946275;28;93782;-34
2022/10/11 11:44:16;;;;;;;9.40;2.90;;;15.50;99.90;;;;;;4953765;28;95910;-31
2022/10/11 11:47:05;;;;;;;9.25;3.67;;;15.60;99.90;;;;;;4952984;28;94620;-32
2022/10/11 11:49:43;;;;;;;14.70;3.45;;;15.60;99.90;;;;;;4954254;28;94197;-30
2022/10/11 11:52:16;;;;;;;13.63;4.78;;;15.70;99.90;;;;;;4953508;28;92949;-29
2022/10/11 11:55:14;;;;;;;5.75;2.03;;;15.70;99.90;;;;;;4953784;28;94465;-31
2022/10/11 11:58:17;;;;;;;11.35;2.30;;;15.70;99.90;;;;;;4934079;28;94474;-34
2022/10/11 12:00:57;;;;;;;5.50;1.90;;;15.70;99.90;;;;;;4953932;28;93351;-30
2022/10/11 12:03:35;;;;;;;11.10;2.72;;;15.90;99.90;;;;;;4954100;28;93044;-32
2022/10/11 12:06:13;;;;;;;7.50;2.28;;;16.00;99.90;;;;;;4952160;28;94836;-33
2022/10/11 12:09:02;;;;;;;7.50;2.53;;;16.10;99.90;;;;;;4953818;28;94366;-32
2022/10/11 12:12:20;;;;;;;5.68;2.28;;;15.90;99.90;;;;;;4956179;28;94482;-31
2022/10/11 12:14:45;;;;;;;;;;;15.70;99.90;;;;;;4885344;28;95019;-32
2022/10/11 12:17:22;;;;;;;7.55;2.05;;;15.50;99.90;;;;;;4957850;28;95763;-34
2022/10/11 12:20:01;;;;;;;9.50;2.78;;;15.40;99.90;;;;;;4957324;28;95345;-32
2022/10/11 12:22:27;;;;;;;7.35;2.58;;;15.40;99.90;;;;;;4958340;28;92126;-33
2022/10/11 12:25:08;;;;;;;6.40;2.90;;;15.50;99.90;;;;;;4957134;28;93946;-32
2022/10/11 12:27:37;;;;;;;4.55;2.35;;;15.40;99.90;;;;;;4957272;28;96372;-31
2022/10/11 12:30:23;;;;;;;6.13;3.03;;;15.40;99.90;;;;;;4956532;28;94497;-33
2022/10/11 12:32:51;;;;;;;7.78;2.72;;;15.40;99.90;;;;;;4957775;28;94064;-31
2022/10/11 12:35:29;;;;;;;7.90;2.38;;;15.50;99.90;;;;;;4940212;28;93903;-33
2022/10/11 12:38:02;;;;;;;7.05;2.95;;;15.60;99.90;;;;;;4957484;28;94907;-34
2022/10/11 12:40:42;;;;;;;5.70;1.83;;;15.70;99.90;;;;;;4957005;28;94301;-30
2022/10/11 12:43:15;;;;;;;6.63;3.38;;;15.60;99.90;;;;;;4957079;28;94465;-32
2022/10/11 12:45:46;;;;;;;4.57;1.85;;;15.50;99.90;;;;;;4957354;28;94292;-31
2022/10/11 12:48:24;;;;;;;3.65;1.98;;;15.50;99.90;;;;;;4957285;28;95103;-31
2022/10/11 12:51:14;;;;;;;9.60;2.45;;;15.60;99.90;;;;;;4956406;28;95560;-33
2022/10/11 12:53:52;;;;;;;13.90;3.25;;;15.50;99.90;;;;;;5002503;22;94646;-31
2022/10/11 12:56:39;;;;;;;11.25;3.17;;;15.40;99.90;;;;;;4996785;28;93452;-33
2022/10/11 12:59:05;;;;;;;11.55;3.47;;;15.60;99.90;;;;;;4996865;28;94906;-30
2022/10/11 13:01:46;;;;;;;5.75;2.55;;;15.60;99.90;;;;;;4978923;28;94090;-33
2022/10/11 13:04:11;;;;;;;8.93;2.80;;;15.70;99.90;;;;;;4996793;28;92765;-32
2022/10/11 13:06:52;;;;;;;7.53;2.60;;;15.70;99.90;;;;;;4995808;28;93225;-32
2022/10/11 13:09:30;;;;;;;10.40;3.38;;;15.90;99.90;;;;;;4977898;28;95546;-31
2022/10/11 13:12:02;;;;;;;3.08;1.80;;;16.00;99.90;;;;;;4996271;28;95531;-30
2022/10/11 13:14:34;;;;;;;7.80;4.70;;;16.10;99.90;;;;;;4996598;28;94965;-33